createdAt,value
2023-04-01T01:05:03.404Z,0.97
2023-04-01T01:07:17.548Z,1.10
2023-04-01T01:09:32.225Z,1.20
2023-04-01T01:11:44.519Z,0.80
2023-04-01T01:13:57.440Z,0.90
2023-04-01T01:16:08.937Z,1.10
2023-04-01T01:18:22.657Z,0.80
2023-04-01T01:20:57.507Z,1.10
2023-04-01T01:23:24.689Z,1.07
2023-04-01T01:25:40.860Z,1.10
2023-04-01T01:27:52.603Z,1.00
2023-04-01T01:30:19.668Z,1.10
2023-04-01T01:32:48.315Z,1.10
2023-04-01T01:34:59.872Z,0.97
2023-04-01T01:37:12.641Z,1.07
2023-04-01T01:39:28.119Z,1.00
2023-04-01T01:41:38.311Z,0.87
2023-04-01T01:43:50.885Z,0.73
2023-04-01T01:46:01.858Z,1.00
2023-04-01T01:48:11.548Z,1.00
2023-04-01T01:50:20.646Z,1.20
2023-04-01T01:52:32.497Z,1.10
2023-04-01T01:54:50.103Z,1.03
2023-04-01T01:57:03.389Z,0.90
2023-04-01T01:59:14.956Z,0.97
2023-04-01T02:01:25.935Z,1.03
2023-04-01T02:03:36.986Z,1.00
2023-04-01T02:05:47.485Z,0.87
2023-04-01T02:08:01.554Z,1.10
2023-04-01T02:10:10.749Z,0.97
2023-04-01T02:12:19.942Z,0.90
2023-04-01T02:14:30.795Z,1.20
2023-04-01T02:16:42.283Z,1.17
2023-04-01T02:18:51.860Z,0.90
2023-04-01T02:21:01.412Z,1.17
2023-04-01T02:23:13.019Z,0.90
2023-04-01T02:25:23.275Z,1.10
2023-04-01T02:27:34.360Z,0.90
2023-04-01T02:29:43.330Z,1.57
2023-04-01T02:31:53.658Z,1.30
2023-04-01T02:34:02.944Z,0.80
2023-04-01T02:36:14.264Z,1.10
2023-04-01T02:38:24.741Z,0.80
2023-04-01T02:40:44.571Z,0.60
2023-04-01T02:42:53.308Z,1.00
2023-04-01T02:45:02.371Z,0.90
2023-04-01T02:47:11.287Z,0.80
2023-04-01T02:49:20.041Z,0.93
2023-04-01T02:51:31.101Z,1.00
2023-04-01T02:53:42.179Z,0.90
2023-04-01T02:55:52.909Z,0.97
2023-04-01T02:58:01.957Z,1.03
2023-04-01T03:00:12.496Z,0.90
2023-04-01T03:02:21.782Z,0.80
2023-04-01T03:04:30.754Z,1.03
2023-04-01T03:06:39.447Z,1.00
2023-04-01T03:08:49.854Z,1.20
2023-04-01T03:11:00.208Z,0.73
2023-04-01T03:13:09.727Z,1.00
2023-04-01T03:15:18.481Z,0.97
2023-04-01T03:17:27.121Z,0.90
2023-04-01T03:19:35.917Z,0.97
2023-04-01T03:21:44.866Z,0.80
2023-04-01T03:23:55.245Z,1.23
2023-04-01T03:26:03.817Z,1.03
2023-04-01T03:28:13.550Z,1.03
2023-04-01T03:30:25.810Z,1.00
2023-04-01T03:32:34.647Z,0.77
2023-04-01T03:34:43.678Z,0.60
2023-04-01T03:36:52.456Z,1.03
2023-04-01T03:39:04.206Z,0.90
2023-04-01T03:41:15.103Z,1.10
2023-04-01T03:43:24.575Z,0.70
2023-04-01T03:45:33.872Z,1.13
2023-04-01T03:47:42.993Z,0.97
2023-04-01T03:49:51.763Z,1.17
2023-04-01T03:52:02.838Z,0.83
2023-04-01T03:54:13.879Z,1.10
2023-04-01T03:56:22.465Z,0.87
2023-04-01T03:58:30.970Z,1.17
2023-04-01T04:00:40.109Z,1.03
2023-04-01T04:02:51.007Z,1.40
2023-04-01T04:04:59.780Z,1.00
2023-04-01T04:07:11.180Z,1.30
2023-04-01T04:09:21.726Z,1.07
2023-04-01T04:11:32.701Z,0.90
2023-04-01T04:13:43.082Z,1.10
2023-04-01T04:15:51.985Z,1.60
2023-04-01T04:18:00.726Z,1.03
2023-04-01T04:20:10.350Z,1.30
2023-04-01T04:22:19.101Z,1.20
2023-04-01T04:24:30.252Z,1.00
2023-04-01T04:26:39.247Z,0.90
2023-04-01T04:28:50.738Z,1.30
2023-04-01T04:30:59.396Z,1.03
2023-04-01T04:33:08.698Z,1.10
2023-04-01T04:35:17.820Z,1.20
2023-04-01T04:37:27.519Z,0.90
2023-04-01T04:39:40.574Z,1.07
2023-04-01T04:41:49.282Z,1.10
2023-04-01T04:43:59.707Z,1.03
2023-04-01T04:46:09.489Z,1.03
2023-04-01T04:48:20.138Z,1.23
2023-04-01T04:50:29.381Z,1.33
2023-04-01T04:52:38.367Z,1.10
2023-04-01T04:54:48.895Z,1.07
2023-04-01T04:56:57.932Z,1.10
2023-04-01T04:59:07.893Z,1.20
2023-04-01T05:01:17.903Z,1.00
2023-04-01T05:03:27.417Z,0.80
2023-04-01T05:05:36.382Z,1.20
2023-04-01T05:07:46.940Z,1.50
2023-04-01T05:09:57.871Z,1.40
2023-04-01T05:12:06.918Z,0.90
2023-04-01T05:14:16.810Z,0.90
2023-04-01T05:16:25.698Z,1.50
2023-04-01T05:18:34.374Z,1.30
2023-04-01T05:20:49.030Z,1.23
2023-04-01T05:22:58.930Z,1.30
2023-04-01T05:25:10.223Z,1.10
2023-04-01T05:27:18.852Z,1.20
2023-04-01T05:29:28.135Z,1.10
2023-04-01T05:31:40.640Z,1.40
2023-04-01T05:33:49.737Z,1.40
2023-04-01T05:35:59.504Z,1.10
2023-04-01T05:38:09.002Z,1.23
2023-04-01T05:40:21.423Z,1.33
2023-04-01T05:42:31.946Z,1.07
2023-04-01T05:44:40.599Z,1.20
2023-04-01T05:46:49.447Z,1.13
2023-04-01T05:48:58.084Z,1.30
2023-04-01T05:51:07.383Z,1.10
2023-04-01T05:53:15.978Z,1.13
2023-04-01T05:55:26.832Z,1.30
2023-04-01T05:57:35.875Z,1.23
2023-04-01T05:59:46.977Z,1.20
2023-04-01T06:01:58.332Z,1.10
2023-04-01T06:04:09.694Z,1.60
2023-04-01T06:06:19.387Z,1.10
2023-04-01T06:08:28.224Z,1.30
2023-04-01T06:10:44.404Z,1.20
2023-04-01T06:12:59.791Z,1.33
2023-04-01T06:15:15.472Z,1.30
2023-04-01T06:17:29.838Z,1.20
2023-04-01T06:19:45.233Z,1.37
2023-04-01T06:22:12.253Z,1.33
2023-04-01T06:24:32.336Z,1.60
2023-04-01T06:26:45.110Z,1.23
2023-04-01T06:29:08.919Z,1.17
2023-04-01T06:31:25.060Z,0.90
2023-04-01T06:33:44.169Z,1.40
2023-04-01T06:36:11.389Z,1.20
2023-04-01T06:38:29.502Z,1.40
2023-04-01T06:41:02.335Z,1.00
2023-04-01T06:43:18.041Z,0.77
2023-04-01T06:45:34.277Z,0.77
2023-04-01T06:47:51.282Z,0.77
2023-04-01T06:50:02.255Z,1.00
2023-04-01T06:52:17.572Z,0.80
2023-04-01T06:54:29.038Z,0.93
2023-04-01T06:56:39.913Z,0.97
2023-04-01T06:58:53.679Z,1.00
2023-04-01T07:01:04.840Z,0.60
2023-04-01T07:03:19.910Z,0.67
2023-04-01T07:05:32.131Z,0.57
2023-04-01T07:07:44.480Z,0.70
2023-04-01T07:09:55.245Z,0.73
2023-04-01T07:12:06.081Z,0.80
2023-04-01T07:14:19.151Z,0.50
2023-04-01T07:16:31.054Z,1.03
2023-04-01T07:18:44.514Z,0.60
2023-04-01T07:20:54.685Z,1.03
2023-04-01T07:23:05.338Z,0.53
2023-04-01T07:25:16.727Z,0.70
2023-04-01T07:27:26.714Z,0.90
2023-04-01T07:29:37.246Z,0.63
2023-04-01T07:32:02.343Z,0.57
2023-04-01T07:34:16.789Z,0.70
2023-04-01T07:36:28.901Z,0.93
2023-04-01T07:38:43.870Z,0.90
2023-04-01T07:40:56.535Z,0.67
2023-04-01T07:43:16.229Z,0.73
2023-04-01T07:45:30.095Z,0.60
2023-04-01T07:47:45.028Z,0.77
2023-04-01T07:49:59.808Z,0.60
2023-04-01T07:52:11.302Z,0.80
2023-04-01T07:54:24.579Z,0.40
2023-04-01T07:56:36.582Z,0.70
2023-04-01T07:58:52.828Z,0.60
2023-04-01T08:01:05.817Z,0.57
2023-04-01T08:03:29.582Z,0.70
2023-04-01T08:05:44.595Z,0.80
2023-04-01T08:07:59.321Z,0.63
2023-04-01T08:10:12.805Z,0.40
2023-04-01T08:12:29.313Z,0.60
2023-04-01T08:14:44.075Z,0.33
2023-04-01T08:16:58.307Z,0.53
2023-04-01T08:19:13.147Z,0.80
2023-04-01T08:21:24.643Z,0.53
2023-04-01T08:23:35.676Z,0.57
2023-04-01T08:25:50.314Z,0.63
2023-04-01T08:28:03.298Z,0.63
2023-04-01T08:30:19.852Z,0.50
2023-04-01T08:32:31.890Z,0.50
2023-04-01T08:34:41.891Z,0.60
2023-04-01T08:36:55.263Z,0.70
2023-04-01T08:39:06.960Z,0.50
2023-04-01T08:41:37.010Z,0.60
2023-04-01T08:44:04.350Z,0.87
2023-04-01T08:46:22.805Z,0.53
2023-04-01T08:48:39.885Z,0.60
2023-04-01T08:51:13.130Z,0.83
2023-04-01T08:53:24.410Z,0.50
2023-04-01T08:55:42.188Z,0.57
2023-04-01T08:57:57.577Z,0.93
2023-04-01T09:00:17.241Z,0.67
2023-04-01T09:02:42.912Z,0.60
2023-04-01T09:05:07.346Z,0.60
2023-04-01T09:07:25.462Z,0.50
2023-04-01T09:09:47.486Z,0.67
2023-04-01T09:12:05.317Z,0.67
2023-04-01T09:14:34.350Z,0.70
2023-04-01T09:17:04.407Z,0.40
2023-04-01T09:19:31.287Z,0.60
2023-04-01T09:21:51.817Z,0.50
2023-04-01T09:24:12.752Z,0.53
2023-04-01T09:26:36.556Z,0.80
2023-04-01T09:28:48.638Z,0.50
2023-04-01T09:31:02.291Z,0.60
2023-04-01T09:33:32.438Z,0.87
2023-04-01T09:35:46.127Z,0.40
2023-04-01T09:38:00.857Z,0.60
2023-04-01T09:40:27.378Z,0.73
2023-04-01T09:42:46.082Z,0.70
2023-04-01T09:44:59.912Z,0.60
2023-04-01T09:47:19.041Z,0.70
2023-04-01T09:49:46.769Z,0.63
2023-04-01T09:52:02.415Z,0.60
2023-04-01T09:54:26.651Z,0.50
2023-04-01T09:56:56.232Z,0.53
2023-04-01T09:59:19.259Z,0.70
2023-04-01T10:01:38.467Z,0.53
2023-04-01T10:04:08.515Z,1.00
2023-04-01T10:06:47.596Z,0.80
2023-04-01T10:09:14.409Z,0.70
2023-04-01T10:11:38.573Z,0.70
2023-04-01T10:14:12.701Z,1.20
2023-04-01T10:16:28.886Z,0.80
2023-04-01T10:18:52.382Z,0.80
2023-04-01T10:21:25.258Z,0.80
2023-04-01T10:23:49.094Z,0.90
2023-04-01T10:26:10.103Z,0.63
2023-04-01T10:28:41.159Z,0.70
2023-04-01T10:31:14.641Z,1.00
2023-04-01T10:33:50.116Z,1.60
2023-04-01T10:36:17.657Z,0.97
2023-04-01T10:38:38.465Z,0.80
2023-04-01T10:41:01.015Z,0.80
2023-04-01T10:43:23.545Z,0.43
2023-04-01T10:45:51.396Z,0.40
2023-04-01T10:48:17.612Z,0.50
2023-04-01T10:50:45.627Z,0.40
2023-04-01T10:53:14.704Z,0.33
2023-04-01T10:55:40.826Z,0.70
2023-04-01T10:58:03.463Z,0.60
2023-04-01T11:00:28.415Z,0.80
2023-04-01T11:03:00.607Z,0.90
2023-04-01T11:05:34.244Z,0.50
2023-04-01T11:08:06.725Z,0.67
2023-04-01T11:10:43.561Z,0.50
2023-04-01T11:13:15.846Z,0.40
2023-04-01T11:15:45.377Z,0.50
2023-04-01T11:18:19.179Z,0.40
2023-04-01T11:20:37.895Z,0.50
2023-04-01T11:22:55.642Z,0.40
2023-04-01T11:25:28.915Z,0.50
2023-04-01T11:27:47.908Z,0.30
2023-04-01T11:30:06.550Z,0.60
2023-04-01T11:32:23.858Z,0.53
2023-04-01T11:34:47.668Z,0.40
2023-04-01T11:37:02.042Z,0.50
2023-04-01T11:39:23.011Z,0.40
2023-04-01T11:41:36.228Z,0.50
2023-04-01T11:43:52.255Z,0.50
2023-04-01T11:46:06.034Z,0.40
2023-04-01T11:48:33.124Z,0.40
2023-04-01T11:50:50.122Z,0.40
2023-04-01T11:53:05.425Z,0.33
2023-04-01T11:55:27.688Z,0.60
2023-04-01T11:57:54.891Z,0.50
2023-04-01T12:00:28.176Z,0.30
2023-04-01T12:02:53.270Z,0.47
2023-04-01T12:05:11.547Z,0.30
2023-04-01T12:07:25.246Z,0.40
2023-04-01T12:09:39.199Z,0.50
2023-04-01T12:11:52.823Z,0.63
2023-04-01T12:14:06.703Z,0.30
2023-04-01T12:16:31.524Z,0.43
2023-04-01T12:18:44.813Z,0.40
2023-04-01T12:20:54.712Z,0.40
2023-04-01T12:23:10.852Z,1.20
2023-04-01T12:25:28.350Z,0.40
2023-04-01T12:27:45.244Z,0.30
2023-04-01T12:30:02.023Z,0.30
2023-04-01T12:32:19.223Z,0.30
2023-04-01T12:34:45.921Z,0.30
2023-04-01T12:37:00.388Z,0.30
2023-04-01T12:39:24.552Z,0.30
2023-04-01T12:41:36.474Z,0.63
2023-04-01T12:44:00.643Z,0.30
2023-04-01T12:46:16.859Z,0.40
2023-04-01T12:48:46.962Z,0.40
2023-04-01T12:51:12.841Z,0.40
2023-04-01T12:53:29.730Z,0.40
2023-04-01T12:55:43.453Z,0.40
2023-04-01T12:58:10.999Z,0.40
2023-04-01T13:00:29.453Z,0.30
2023-04-01T13:02:47.541Z,0.50
2023-04-01T13:05:06.758Z,0.33
2023-04-01T13:07:30.568Z,0.40
2023-04-01T13:09:51.447Z,0.40
2023-04-01T13:12:22.717Z,0.50
2023-04-01T13:14:53.531Z,0.50
2023-04-01T13:17:10.563Z,0.43
2023-04-01T13:19:21.957Z,0.30
2023-04-01T13:21:36.961Z,0.67
2023-04-01T13:23:54.609Z,0.30
2023-04-01T13:26:14.586Z,0.43
2023-04-01T13:28:27.772Z,0.60
2023-04-01T13:30:38.552Z,0.30
2023-04-01T13:32:48.441Z,0.50
2023-04-01T13:35:11.480Z,0.50
2023-04-01T13:37:36.020Z,0.47
2023-04-01T13:39:50.820Z,0.57
2023-04-01T13:42:09.559Z,0.40
2023-04-01T13:44:21.631Z,0.30
2023-04-01T13:46:42.830Z,0.67
2023-04-01T13:49:02.837Z,0.40
2023-04-01T13:51:16.976Z,0.40
2023-04-01T13:53:37.404Z,0.40
2023-04-01T13:55:53.037Z,0.50
2023-04-01T13:58:13.016Z,0.40
2023-04-01T14:00:44.977Z,0.40
2023-04-01T14:02:59.832Z,0.60
2023-04-01T14:05:43.399Z,0.40
2023-04-01T14:07:59.666Z,0.40
2023-04-01T14:10:11.777Z,0.30
2023-04-01T14:12:26.130Z,0.40
2023-04-01T14:14:42.742Z,0.50
2023-04-01T14:17:12.374Z,0.50
2023-04-01T14:19:28.164Z,0.50
2023-04-01T14:21:40.096Z,0.60
2023-04-01T14:23:55.035Z,0.50
2023-04-01T14:26:21.911Z,0.47
2023-04-01T14:28:33.814Z,0.40
2023-04-01T14:30:58.004Z,0.47
2023-04-01T14:33:15.708Z,0.43
2023-04-01T14:35:33.889Z,0.70
2023-04-01T14:37:58.764Z,0.60
2023-04-01T14:40:22.361Z,0.77
2023-04-01T14:42:41.758Z,0.50
2023-04-01T14:45:00.770Z,0.60
2023-04-01T14:47:27.042Z,0.30
2023-04-01T14:49:37.181Z,0.57
2023-04-01T14:51:46.641Z,0.60
2023-04-01T14:54:00.076Z,0.50
2023-04-01T14:56:09.099Z,0.57
2023-04-01T14:58:19.734Z,0.50
2023-04-01T15:00:28.704Z,0.50
2023-04-01T15:02:46.123Z,0.60
2023-04-01T15:04:59.370Z,0.60
2023-04-01T15:07:24.292Z,0.70
2023-04-01T15:09:38.100Z,0.60
2023-04-01T15:11:55.505Z,0.70
2023-04-01T15:14:09.859Z,0.50
2023-04-01T15:16:23.046Z,0.60
2023-04-01T15:18:38.920Z,0.60
2023-04-01T15:20:57.017Z,0.70
2023-04-01T15:23:15.255Z,0.60
2023-04-01T15:25:31.880Z,0.63
2023-04-01T15:27:44.426Z,0.60
2023-04-01T15:30:07.602Z,0.60
2023-04-01T15:32:20.840Z,0.60
2023-04-01T15:34:36.286Z,0.60
2023-04-01T15:36:47.769Z,0.67
2023-04-01T15:39:02.635Z,0.50
2023-04-01T15:41:18.103Z,0.50
2023-04-01T15:43:30.858Z,0.50
2023-04-01T15:45:45.539Z,0.50
2023-04-01T15:48:03.112Z,0.50
2023-04-01T15:50:26.819Z,0.50
2023-04-01T15:52:44.630Z,0.63
2023-04-01T15:55:08.085Z,0.70
2023-04-01T15:57:21.388Z,0.60
2023-04-01T15:59:46.368Z,0.50
2023-04-01T16:02:02.291Z,0.60
2023-04-01T16:04:20.467Z,0.73
2023-04-01T16:06:46.164Z,0.63
2023-04-01T16:09:11.973Z,0.50
2023-04-01T16:11:29.009Z,0.57
2023-04-01T16:13:46.332Z,0.70
2023-04-01T16:16:01.356Z,0.57
2023-04-01T16:18:23.397Z,0.50
2023-04-01T16:20:42.842Z,0.70
2023-04-01T16:22:56.435Z,0.67
2023-04-01T16:25:18.281Z,0.70
2023-04-01T16:27:32.300Z,0.63
2023-04-01T16:29:43.950Z,0.87
2023-04-01T16:31:55.417Z,0.50
2023-04-01T16:34:07.024Z,0.80
2023-04-01T16:36:20.606Z,0.90
2023-04-01T16:38:35.354Z,0.70
2023-04-01T16:40:47.767Z,1.03
2023-04-01T16:43:02.350Z,0.70
2023-04-01T16:45:20.388Z,0.90
2023-04-01T16:47:32.805Z,1.07
2023-04-01T16:49:44.432Z,0.90
2023-04-01T16:51:57.864Z,0.80
2023-04-01T16:54:09.362Z,0.77
2023-04-01T16:56:20.328Z,0.73
2023-04-01T16:58:37.091Z,0.90
2023-04-01T17:00:54.141Z,1.00
2023-04-01T17:03:08.050Z,1.33
2023-04-01T17:05:17.323Z,1.17
2023-04-01T17:07:33.347Z,0.80
2023-04-01T17:09:55.086Z,0.70
2023-04-01T17:12:06.988Z,0.87
2023-04-01T17:14:24.090Z,1.10
2023-04-01T17:16:48.054Z,0.60
2023-04-01T17:19:03.173Z,1.20
2023-04-01T17:21:13.999Z,1.20
2023-04-01T17:23:25.752Z,0.80
2023-04-01T17:25:52.169Z,0.97
2023-04-01T17:28:02.973Z,1.00
2023-04-01T17:30:26.624Z,0.90
2023-04-01T17:32:44.348Z,0.93
2023-04-01T17:35:01.648Z,1.00
2023-04-01T17:37:20.237Z,0.97
2023-04-01T17:39:58.912Z,1.00
2023-04-01T17:42:09.114Z,0.80
2023-04-01T17:44:28.089Z,1.13
2023-04-01T17:46:44.681Z,1.33
2023-04-01T17:48:58.456Z,1.00
2023-04-01T17:51:25.497Z,0.90
2023-04-01T17:53:40.212Z,0.90
2023-04-01T17:55:52.536Z,0.93
2023-04-01T17:58:04.270Z,0.80
2023-04-01T18:00:23.989Z,0.63
2023-04-01T18:02:43.129Z,0.87
2023-04-01T18:05:19.130Z,0.80
2023-04-01T18:07:34.496Z,0.90
2023-04-01T18:09:50.161Z,1.00
2023-04-01T18:12:03.657Z,1.00
2023-04-01T18:14:36.521Z,0.60
2023-04-01T18:17:01.306Z,0.80
2023-04-01T18:19:19.661Z,0.97
2023-04-01T18:21:34.644Z,0.97
2023-04-01T18:23:59.136Z,0.90
2023-04-01T18:26:14.024Z,0.93
2023-04-01T18:28:26.096Z,0.90
2023-04-01T18:30:35.909Z,0.50
2023-04-01T18:32:47.916Z,1.10
2023-04-01T18:35:01.371Z,1.90
2023-04-01T18:37:19.421Z,1.17
2023-04-01T18:39:36.101Z,0.73
2023-04-01T18:41:52.627Z,1.10
2023-04-01T18:44:06.851Z,0.80
2023-04-01T18:46:20.836Z,1.10
2023-04-01T18:48:45.209Z,1.30
2023-04-01T18:50:58.354Z,1.00
2023-04-01T18:53:13.927Z,0.80
2023-04-01T18:55:34.129Z,0.80
2023-04-01T18:57:44.169Z,1.00
2023-04-01T18:59:56.142Z,1.10
2023-04-01T19:02:09.276Z,1.27
2023-04-01T19:04:22.120Z,0.90
2023-04-01T19:06:35.120Z,1.37
2023-04-01T19:08:44.449Z,1.00
2023-04-01T19:11:00.001Z,1.20
2023-04-01T19:13:19.878Z,1.00
2023-04-01T19:15:35.233Z,1.10
2023-04-01T19:17:50.563Z,1.07
2023-04-01T19:20:03.709Z,1.10
2023-04-01T19:22:29.015Z,1.13
2023-04-01T19:24:52.954Z,1.30
2023-04-01T19:27:06.491Z,1.23
2023-04-01T19:29:21.464Z,1.30
2023-04-01T19:31:38.053Z,1.37
2023-04-01T19:33:55.643Z,1.00
2023-04-01T19:36:09.997Z,1.57
2023-04-01T19:38:26.224Z,1.47
2023-04-01T19:40:42.590Z,1.20
2023-04-01T19:42:57.671Z,1.17
2023-04-01T19:45:11.173Z,1.00
2023-04-01T19:47:24.250Z,1.00
2023-04-01T19:49:39.921Z,1.50
2023-04-01T19:51:53.783Z,1.30
2023-04-01T19:54:07.100Z,1.10
2023-04-01T19:56:19.218Z,1.20
2023-04-01T19:58:30.968Z,1.10
2023-04-01T20:00:41.604Z,1.03
2023-04-01T20:02:58.763Z,1.40
2023-04-01T20:05:20.130Z,0.90
2023-04-01T20:07:31.606Z,0.90
2023-04-01T20:09:58.063Z,1.20
2023-04-01T20:12:13.236Z,1.10
2023-04-01T20:14:27.626Z,1.20
2023-04-01T20:17:00.433Z,1.27
2023-04-01T20:19:11.161Z,0.73
2023-04-01T20:21:22.830Z,1.10
2023-04-01T20:23:37.785Z,1.13
2023-04-01T20:25:49.354Z,1.23
2023-04-01T20:28:02.662Z,1.30
2023-04-01T20:30:31.581Z,1.10
2023-04-01T20:32:58.524Z,1.23
2023-04-01T20:35:15.822Z,1.03
2023-04-01T20:37:31.751Z,1.20
2023-04-01T20:39:49.635Z,1.10
2023-04-01T20:42:04.550Z,1.53
2023-04-01T20:44:15.783Z,1.17
2023-04-01T20:46:27.372Z,1.40
2023-04-01T20:48:44.322Z,0.97
2023-04-01T20:50:54.122Z,1.23
2023-04-01T20:53:07.369Z,1.40
2023-04-01T20:55:34.104Z,1.23
2023-04-01T20:57:47.088Z,0.83
2023-04-01T21:00:02.956Z,1.30
2023-04-01T21:02:29.730Z,1.10
2023-04-01T21:04:44.618Z,1.70
2023-04-01T21:07:01.382Z,1.43
2023-04-01T21:09:18.834Z,1.20
2023-04-01T21:11:31.845Z,1.30
2023-04-01T21:13:48.309Z,1.23
2023-04-01T21:16:05.276Z,0.97
2023-04-01T21:18:23.035Z,1.30
2023-04-01T21:20:39.663Z,1.40
2023-04-01T21:22:53.891Z,1.37
2023-04-01T21:25:20.712Z,0.97
2023-04-01T21:27:37.723Z,1.00
2023-04-01T21:29:54.645Z,1.20
2023-04-01T21:32:11.686Z,0.80
2023-04-01T21:34:36.560Z,1.07
2023-04-01T21:36:56.402Z,1.20
2023-04-01T21:39:10.211Z,1.20
2023-04-01T21:41:27.382Z,1.57
2023-04-01T21:43:47.715Z,1.40
2023-04-01T21:46:09.372Z,1.40
2023-04-01T21:48:35.912Z,1.30
2023-04-01T21:50:53.288Z,1.33
2023-04-01T21:53:23.132Z,1.20
2023-04-01T21:55:53.036Z,1.20
2023-04-01T21:58:19.205Z,1.50
2023-04-01T22:00:29.052Z,1.17
2023-04-01T22:02:46.193Z,1.40
2023-04-01T22:05:01.045Z,1.17
2023-04-01T22:07:15.775Z,1.03
2023-04-01T22:09:28.550Z,1.30
2023-04-01T22:11:45.835Z,1.47
2023-04-01T22:13:57.512Z,1.50
2023-04-01T22:16:12.252Z,1.63
2023-04-01T22:18:23.936Z,1.60
2023-04-01T22:20:38.103Z,1.80
2023-04-01T22:23:02.020Z,1.50
2023-04-01T22:25:17.438Z,1.50
2023-04-01T22:27:30.020Z,1.40
2023-04-01T22:29:42.778Z,1.73
2023-04-01T22:31:55.705Z,2.10
2023-04-01T22:34:07.427Z,1.53
2023-04-01T22:36:20.713Z,1.70
2023-04-01T22:38:38.074Z,2.00
2023-04-01T22:40:51.160Z,1.87
2023-04-01T22:43:01.963Z,1.53
2023-04-01T22:45:24.120Z,1.57
2023-04-01T22:47:38.010Z,1.90
2023-04-01T22:49:52.557Z,1.83
2023-04-01T22:52:06.692Z,2.20
2023-04-01T22:54:17.924Z,2.00
2023-04-01T22:56:33.260Z,2.03
2023-04-01T22:58:44.686Z,1.90
2023-04-01T23:00:58.390Z,1.87
2023-04-01T23:03:14.196Z,2.00
2023-04-01T23:05:24.650Z,1.57
2023-04-01T23:07:48.054Z,1.67
2023-04-01T23:09:59.061Z,2.20
2023-04-01T23:12:13.131Z,1.67
2023-04-01T23:14:42.245Z,1.60
2023-04-01T23:16:56.213Z,1.60
2023-04-01T23:19:09.629Z,1.70
2023-04-01T23:21:21.531Z,1.77
2023-04-01T23:23:35.528Z,1.60
2023-04-01T23:25:48.646Z,1.90
2023-04-01T23:28:01.816Z,1.87
2023-04-01T23:30:34.626Z,1.90
2023-04-01T23:32:43.520Z,1.80
2023-04-01T23:34:53.014Z,0.97
2023-04-01T23:37:04.202Z,1.47
2023-04-01T23:39:18.076Z,1.30
2023-04-01T23:41:29.225Z,1.27
2023-04-01T23:43:40.389Z,1.30
2023-04-01T23:45:49.049Z,1.43
2023-04-01T23:47:57.719Z,1.50
2023-04-01T23:50:07.743Z,1.40
2023-04-01T23:52:20.514Z,1.50
2023-04-01T23:54:34.971Z,1.27
2023-04-01T23:56:45.641Z,1.70
2023-04-01T23:58:57.774Z,1.30
